sensor_id;sensor_type;location;lat;lon;timestamp;P1;durP1;ratioP1;P2;durP2;ratioP2
37931;SDS011;23758;42.640;23.302;2022-10-04T00:02:51;2.20;;;2.10;;
37931;SDS011;23758;42.640;23.302;2022-10-04T00:05:20;2.30;;;2.20;;
37931;SDS011;23758;42.640;23.302;2022-10-04T00:07:48;2.30;;;2.20;;
37931;SDS011;23758;42.640;23.302;2022-10-04T00:10:18;2.20;;;2.10;;
37931;SDS011;23758;42.640;23.302;2022-10-04T00:12:54;2.40;;;2.30;;
37931;SDS011;23758;42.640;23.302;2022-10-04T00:15:30;2.35;;;2.25;;
37931;SDS011;23758;42.640;23.302;2022-10-04T00:26:02;2.40;;;2.30;;
37931;SDS011;23758;42.640;23.302;2022-10-04T00:36:38;2.38;;;2.28;;
37931;SDS011;23758;42.640;23.302;2022-10-04T00:39:16;2.50;;;2.40;;
37931;SDS011;23758;42.640;23.302;2022-10-04T00:44:20;2.40;;;2.30;;
37931;SDS011;23758;42.640;23.302;2022-10-04T00:46:53;2.90;;;2.70;;
37931;SDS011;23758;42.640;23.302;2022-10-04T00:49:20;2.38;;;2.28;;
37931;SDS011;23758;42.640;23.302;2022-10-04T00:51:49;2.40;;;2.30;;
37931;SDS011;23758;42.640;23.302;2022-10-04T00:56:50;2.50;;;2.40;;
37931;SDS011;23758;42.640;23.302;2022-10-04T00:59:28;2.50;;;2.40;;
37931;SDS011;23758;42.640;23.302;2022-10-04T01:05:21;2.80;;;2.60;;
37931;SDS011;23758;42.640;23.302;2022-10-04T01:07:40;2.70;;;2.50;;
37931;SDS011;23758;42.640;23.302;2022-10-04T01:12:44;2.60;;;2.40;;
37931;SDS011;23758;42.640;23.302;2022-10-04T01:15:25;2.70;;;2.50;;
37931;SDS011;23758;42.640;23.302;2022-10-04T01:18:09;2.70;;;2.50;;
37931;SDS011;23758;42.640;23.302;2022-10-04T01:20:59;2.40;;;2.30;;
37931;SDS011;23758;42.640;23.302;2022-10-04T01:26:34;2.50;;;2.40;;
37931;SDS011;23758;42.640;23.302;2022-10-04T01:28:57;2.45;;;2.35;;
37931;SDS011;23758;42.640;23.302;2022-10-04T01:31:30;2.50;;;2.40;;
37931;SDS011;23758;42.640;23.302;2022-10-04T01:33:58;2.78;;;2.58;;
37931;SDS011;23758;42.640;23.302;2022-10-04T01:36:24;2.60;;;2.40;;
37931;SDS011;23758;42.640;23.302;2022-10-04T01:38:51;2.60;;;2.40;;
37931;SDS011;23758;42.640;23.302;2022-10-04T01:41:19;2.78;;;2.58;;
37931;SDS011;23758;42.640;23.302;2022-10-04T01:43:47;2.58;;;2.40;;
37931;SDS011;23758;42.640;23.302;2022-10-04T01:46:19;3.55;;;3.25;;
37931;SDS011;23758;42.640;23.302;2022-10-04T01:48:47;2.90;;;2.70;;
37931;SDS011;23758;42.640;23.302;2022-10-04T01:53:53;2.70;;;2.50;;
37931;SDS011;23758;42.640;23.302;2022-10-04T01:56:23;2.70;;;2.50;;
37931;SDS011;23758;42.640;23.302;2022-10-04T01:58:59;2.70;;;2.55;;
37931;SDS011;23758;42.640;23.302;2022-10-04T02:01:31;2.70;;;2.50;;
37931;SDS011;23758;42.640;23.302;2022-10-04T02:04:07;2.50;;;2.40;;
37931;SDS011;23758;42.640;23.302;2022-10-04T02:06:36;2.65;;;2.45;;
37931;SDS011;23758;42.640;23.302;2022-10-04T02:09:07;2.70;;;2.50;;
37931;SDS011;23758;42.640;23.302;2022-10-04T02:11:34;2.63;;;2.50;;
37931;SDS011;23758;42.640;23.302;2022-10-04T02:14:03;2.60;;;2.40;;
37931;SDS011;23758;42.640;23.302;2022-10-04T02:16:30;2.58;;;2.40;;
37931;SDS011;23758;42.640;23.302;2022-10-04T02:19:00;2.75;;;2.55;;
37931;SDS011;23758;42.640;23.302;2022-10-04T02:21:27;2.40;;;2.30;;
37931;SDS011;23758;42.640;23.302;2022-10-04T02:23:53;2.40;;;2.30;;
37931;SDS011;23758;42.640;23.302;2022-10-04T02:26:18;2.50;;;2.40;;
37931;SDS011;23758;42.640;23.302;2022-10-04T02:28:45;2.60;;;2.40;;
37931;SDS011;23758;42.640;23.302;2022-10-04T02:31:11;2.72;;;2.55;;
37931;SDS011;23758;42.640;23.302;2022-10-04T02:33:56;2.40;;;2.30;;
37931;SDS011;23758;42.640;23.302;2022-10-04T02:36:23;2.40;;;2.30;;
37931;SDS011;23758;42.640;23.302;2022-10-04T02:38:53;2.50;;;2.40;;
37931;SDS011;23758;42.640;23.302;2022-10-04T02:41:24;2.85;;;2.65;;
37931;SDS011;23758;42.640;23.302;2022-10-04T02:49:28;2.50;;;2.40;;
37931;SDS011;23758;42.640;23.302;2022-10-04T02:52:13;2.78;;;2.58;;
37931;SDS011;23758;42.640;23.302;2022-10-04T02:54:47;2.50;;;2.40;;
37931;SDS011;23758;42.640;23.302;2022-10-04T02:57:20;2.42;;;2.33;;
37931;SDS011;23758;42.640;23.302;2022-10-04T02:59:46;2.40;;;2.30;;
37931;SDS011;23758;42.640;23.302;2022-10-04T03:02:26;2.50;;;2.40;;
37931;SDS011;23758;42.640;23.302;2022-10-04T03:04:54;2.47;;;2.38;;
37931;SDS011;23758;42.640;23.302;2022-10-04T03:07:20;2.65;;;2.47;;
37931;SDS011;23758;42.640;23.302;2022-10-04T03:09:46;2.55;;;2.42;;
37931;SDS011;23758;42.640;23.302;2022-10-04T03:12:12;2.45;;;2.35;;
37931;SDS011;23758;42.640;23.302;2022-10-04T03:14:38;2.38;;;2.28;;
37931;SDS011;23758;42.640;23.302;2022-10-04T03:17:04;2.40;;;2.30;;
37931;SDS011;23758;42.640;23.302;2022-10-04T03:19:30;2.50;;;2.40;;
37931;SDS011;23758;42.640;23.302;2022-10-04T03:21:57;2.40;;;2.30;;
37931;SDS011;23758;42.640;23.302;2022-10-04T03:24:33;2.40;;;2.30;;
37931;SDS011;23758;42.640;23.302;2022-10-04T03:27:02;2.65;;;2.45;;
37931;SDS011;23758;42.640;23.302;2022-10-04T03:29:30;3.10;;;2.90;;
37931;SDS011;23758;42.640;23.302;2022-10-04T03:31:57;2.40;;;2.30;;
37931;SDS011;23758;42.640;23.302;2022-10-04T03:34:35;2.50;;;2.40;;
37931;SDS011;23758;42.640;23.302;2022-10-04T03:37:02;2.30;;;2.20;;
37931;SDS011;23758;42.640;23.302;2022-10-04T03:39:33;2.40;;;2.30;;
37931;SDS011;23758;42.640;23.302;2022-10-04T03:42:10;2.40;;;2.30;;
37931;SDS011;23758;42.640;23.302;2022-10-04T03:44:38;2.28;;;2.17;;
37931;SDS011;23758;42.640;23.302;2022-10-04T03:47:20;2.50;;;2.40;;
37931;SDS011;23758;42.640;23.302;2022-10-04T03:49:49;2.78;;;2.58;;
37931;SDS011;23758;42.640;23.302;2022-10-04T03:52:26;4.05;;;3.40;;
37931;SDS011;23758;42.640;23.302;2022-10-04T03:54:57;2.40;;;2.30;;
37931;SDS011;23758;42.640;23.302;2022-10-04T03:57:25;2.70;;;2.50;;
37931;SDS011;23758;42.640;23.302;2022-10-04T03:59:51;2.50;;;2.40;;
37931;SDS011;23758;42.640;23.302;2022-10-04T04:05:30;2.70;;;2.50;;
37931;SDS011;23758;42.640;23.302;2022-10-04T04:07:44;2.70;;;2.50;;
37931;SDS011;23758;42.640;23.302;2022-10-04T04:12:45;2.55;;;2.40;;
37931;SDS011;23758;42.640;23.302;2022-10-04T04:15:12;2.80;;;2.60;;
37931;SDS011;23758;42.640;23.302;2022-10-04T04:17:39;2.40;;;2.30;;
37931;SDS011;23758;42.640;23.302;2022-10-04T04:20:17;2.50;;;2.40;;
37931;SDS011;23758;42.640;23.302;2022-10-04T04:22:56;2.70;;;2.50;;
37931;SDS011;23758;42.640;23.302;2022-10-04T04:25:24;2.70;;;2.50;;
37931;SDS011;23758;42.640;23.302;2022-10-04T04:27:51;2.40;;;2.30;;
37931;SDS011;23758;42.640;23.302;2022-10-04T04:30:22;2.80;;;2.60;;
37931;SDS011;23758;42.640;23.302;2022-10-04T04:32:49;2.65;;;2.45;;
37931;SDS011;23758;42.640;23.302;2022-10-04T04:35:21;2.80;;;2.60;;
37931;SDS011;23758;42.640;23.302;2022-10-04T04:38:05;2.40;;;2.30;;
37931;SDS011;23758;42.640;23.302;2022-10-04T04:40:51;2.50;;;2.40;;
37931;SDS011;23758;42.640;23.302;2022-10-04T04:43:23;2.40;;;2.30;;
37931;SDS011;23758;42.640;23.302;2022-10-04T04:45:49;2.70;;;2.50;;
37931;SDS011;23758;42.640;23.302;2022-10-04T04:48:16;2.70;;;2.50;;
37931;SDS011;23758;42.640;23.302;2022-10-04T04:50:47;2.50;;;2.40;;
37931;SDS011;23758;42.640;23.302;2022-10-04T04:53:49;2.70;;;2.50;;
37931;SDS011;23758;42.640;23.302;2022-10-04T04:56:07;2.70;;;2.50;;
37931;SDS011;23758;42.640;23.302;2022-10-04T04:58:35;2.50;;;2.40;;
37931;SDS011;23758;42.640;23.302;2022-10-04T05:03:29;2.70;;;2.50;;
37931;SDS011;23758;42.640;23.302;2022-10-04T05:05:55;2.42;;;2.33;;
37931;SDS011;23758;42.640;23.302;2022-10-04T05:08:26;2.88;;;2.67;;
37931;SDS011;23758;42.640;23.302;2022-10-04T05:13:30;2.63;;;2.42;;
37931;SDS011;23758;42.640;23.302;2022-10-04T05:15:58;2.40;;;2.30;;
37931;SDS011;23758;42.640;23.302;2022-10-04T05:18:30;2.70;;;2.50;;
37931;SDS011;23758;42.640;23.302;2022-10-04T05:21:07;2.80;;;2.60;;
37931;SDS011;23758;42.640;23.302;2022-10-04T05:23:36;2.50;;;2.40;;
37931;SDS011;23758;42.640;23.302;2022-10-04T05:26:02;2.60;;;2.40;;
37931;SDS011;23758;42.640;23.302;2022-10-04T05:28:28;2.40;;;2.30;;
37931;SDS011;23758;42.640;23.302;2022-10-04T05:31:04;2.70;;;2.50;;
37931;SDS011;23758;42.640;23.302;2022-10-04T05:33:50;2.40;;;2.30;;
37931;SDS011;23758;42.640;23.302;2022-10-04T05:42:00;2.88;;;2.67;;
37931;SDS011;23758;42.640;23.302;2022-10-04T05:44:45;2.60;;;2.40;;
37931;SDS011;23758;42.640;23.302;2022-10-04T05:47:16;2.55;;;2.38;;
37931;SDS011;23758;42.640;23.302;2022-10-04T05:49:46;2.40;;;2.30;;
37931;SDS011;23758;42.640;23.302;2022-10-04T05:52:24;2.40;;;2.30;;
37931;SDS011;23758;42.640;23.302;2022-10-04T06:00:16;2.40;;;2.30;;
37931;SDS011;23758;42.640;23.302;2022-10-04T06:02:55;2.40;;;2.30;;
37931;SDS011;23758;42.640;23.302;2022-10-04T06:11:30;2.40;;;2.30;;
37931;SDS011;23758;42.640;23.302;2022-10-04T06:22:19;2.30;;;2.20;;
37931;SDS011;23758;42.640;23.302;2022-10-04T06:38:25;2.40;;;2.30;;
37931;SDS011;23758;42.640;23.302;2022-10-04T06:41:05;2.70;;;2.50;;
37931;SDS011;23758;42.640;23.302;2022-10-04T07:00:13;2.65;;;2.47;;
37931;SDS011;23758;42.640;23.302;2022-10-04T07:13:52;3.67;;;2.40;;
37931;SDS011;23758;42.640;23.302;2022-10-04T07:25:36;2.22;;;2.13;;
37931;SDS011;23758;42.640;23.302;2022-10-04T07:30:17;2.15;;;2.05;;
37931;SDS011;23758;42.640;23.302;2022-10-04T07:32:45;2.58;;;2.38;;
37931;SDS011;23758;42.640;23.302;2022-10-04T07:35:27;2.20;;;2.10;;
37931;SDS011;23758;42.640;23.302;2022-10-04T07:40:37;2.00;;;1.90;;
37931;SDS011;23758;42.640;23.302;2022-10-04T07:43:05;2.10;;;2.00;;
37931;SDS011;23758;42.640;23.302;2022-10-04T07:45:38;2.30;;;2.20;;
37931;SDS011;23758;42.640;23.302;2022-10-04T07:50:45;2.00;;;1.90;;
37931;SDS011;23758;42.640;23.302;2022-10-04T07:56:01;2.10;;;2.00;;
37931;SDS011;23758;42.640;23.302;2022-10-04T07:58:39;2.20;;;2.10;;
37931;SDS011;23758;42.640;23.302;2022-10-04T08:14:46;2.10;;;2.00;;
37931;SDS011;23758;42.640;23.302;2022-10-04T08:20:20;2.00;;;1.90;;
37931;SDS011;23758;42.640;23.302;2022-10-04T08:22:58;2.25;;;2.15;;
37931;SDS011;23758;42.640;23.302;2022-10-04T08:34:05;2.08;;;1.98;;
37931;SDS011;23758;42.640;23.302;2022-10-04T08:54:15;2.10;;;2.00;;
37931;SDS011;23758;42.640;23.302;2022-10-04T09:10:15;2.08;;;1.98;;
37931;SDS011;23758;42.640;23.302;2022-10-04T09:15:52;1.90;;;1.80;;
37931;SDS011;23758;42.640;23.302;2022-10-04T09:21:26;1.90;;;1.80;;
37931;SDS011;23758;42.640;23.302;2022-10-04T09:51:56;1.90;;;1.80;;
37931;SDS011;23758;42.640;23.302;2022-10-04T09:57:25;1.90;;;1.80;;
37931;SDS011;23758;42.640;23.302;2022-10-04T10:05:26;1.90;;;1.80;;
37931;SDS011;23758;42.640;23.302;2022-10-04T10:25:01;2.05;;;1.95;;
37931;SDS011;23758;42.640;23.302;2022-10-04T10:27:50;1.90;;;1.80;;
37931;SDS011;23758;42.640;23.302;2022-10-04T10:50:13;1.90;;;1.80;;
37931;SDS011;23758;42.640;23.302;2022-10-04T10:52:52;2.00;;;1.90;;
37931;SDS011;23758;42.640;23.302;2022-10-04T11:12:41;2.20;;;2.10;;
37931;SDS011;23758;42.640;23.302;2022-10-04T11:15:31;2.00;;;1.90;;
37931;SDS011;23758;42.640;23.302;2022-10-04T11:18:11;1.90;;;1.80;;
37931;SDS011;23758;42.640;23.302;2022-10-04T11:26:45;2.30;;;2.10;;
37931;SDS011;23758;42.640;23.302;2022-10-04T11:40:01;2.00;;;1.90;;
37931;SDS011;23758;42.640;23.302;2022-10-04T11:42:42;2.00;;;1.90;;
37931;SDS011;23758;42.640;23.302;2022-10-04T11:59:31;1.90;;;1.80;;
37931;SDS011;23758;42.640;23.302;2022-10-04T12:18:01;1.90;;;1.80;;
37931;SDS011;23758;42.640;23.302;2022-10-04T12:32:06;2.00;;;1.90;;
37931;SDS011;23758;42.640;23.302;2022-10-04T12:35:19;2.00;;;1.90;;
37931;SDS011;23758;42.640;23.302;2022-10-04T12:40:30;2.00;;;1.90;;
37931;SDS011;23758;42.640;23.302;2022-10-04T12:43:15;1.80;;;1.70;;
37931;SDS011;23758;42.640;23.302;2022-10-04T12:45:57;2.28;;;2.17;;
37931;SDS011;23758;42.640;23.302;2022-10-04T12:51:26;1.70;;;1.60;;
37931;SDS011;23758;42.640;23.302;2022-10-04T12:54:29;1.90;;;1.80;;
37931;SDS011;23758;42.640;23.302;2022-10-04T13:00:04;1.90;;;1.80;;
37931;SDS011;23758;42.640;23.302;2022-10-04T13:11:43;2.17;;;2.08;;
37931;SDS011;23758;42.640;23.302;2022-10-04T13:17:09;1.90;;;1.80;;
37931;SDS011;23758;42.640;23.302;2022-10-04T13:19:40;2.08;;;1.98;;
37931;SDS011;23758;42.640;23.302;2022-10-04T13:27:45;2.30;;;2.20;;
37931;SDS011;23758;42.640;23.302;2022-10-04T13:32:54;2.10;;;2.00;;
37931;SDS011;23758;42.640;23.302;2022-10-04T13:38:15;2.00;;;1.90;;
37931;SDS011;23758;42.640;23.302;2022-10-04T13:40:54;2.10;;;2.00;;
37931;SDS011;23758;42.640;23.302;2022-10-04T13:46:22;2.15;;;2.00;;
37931;SDS011;23758;42.640;23.302;2022-10-04T13:55:45;2.00;;;1.90;;
37931;SDS011;23758;42.640;23.302;2022-10-04T14:05:48;2.00;;;1.90;;
37931;SDS011;23758;42.640;23.302;2022-10-04T14:11:06;2.00;;;1.90;;
37931;SDS011;23758;42.640;23.302;2022-10-04T14:13:57;2.10;;;2.00;;
37931;SDS011;23758;42.640;23.302;2022-10-04T14:32:50;2.15;;;2.05;;
37931;SDS011;23758;42.640;23.302;2022-10-04T14:54:50;2.10;;;2.00;;
37931;SDS011;23758;42.640;23.302;2022-10-04T14:58:04;2.10;;;2.00;;
37931;SDS011;23758;42.640;23.302;2022-10-04T15:11:13;2.72;;;2.53;;
37931;SDS011;23758;42.640;23.302;2022-10-04T15:13:55;2.13;;;2.03;;
37931;SDS011;23758;42.640;23.302;2022-10-04T15:19:09;2.20;;;2.10;;
37931;SDS011;23758;42.640;23.302;2022-10-04T15:32:58;2.00;;;1.90;;
37931;SDS011;23758;42.640;23.302;2022-10-04T15:49:18;2.20;;;2.10;;
37931;SDS011;23758;42.640;23.302;2022-10-04T16:00:22;2.10;;;2.00;;
37931;SDS011;23758;42.640;23.302;2022-10-04T16:05:42;2.30;;;2.20;;
37931;SDS011;23758;42.640;23.302;2022-10-04T16:13:56;2.30;;;2.20;;
37931;SDS011;23758;42.640;23.302;2022-10-04T16:25:55;2.55;;;2.42;;
37931;SDS011;23758;42.640;23.302;2022-10-04T16:34:33;2.40;;;2.30;;
37931;SDS011;23758;42.640;23.302;2022-10-04T16:39:39;2.30;;;2.20;;
37931;SDS011;23758;42.640;23.302;2022-10-04T16:47:55;2.60;;;2.40;;
37931;SDS011;23758;42.640;23.302;2022-10-04T16:53:19;2.30;;;2.20;;
37931;SDS011;23758;42.640;23.302;2022-10-04T16:55:56;3.42;;;2.35;;
37931;SDS011;23758;42.640;23.302;2022-10-04T17:06:20;2.30;;;2.20;;
37931;SDS011;23758;42.640;23.302;2022-10-04T17:09:00;2.70;;;2.50;;
37931;SDS011;23758;42.640;23.302;2022-10-04T17:11:39;2.45;;;2.35;;
37931;SDS011;23758;42.640;23.302;2022-10-04T17:16:54;2.22;;;2.13;;
37931;SDS011;23758;42.640;23.302;2022-10-04T17:27:49;2.40;;;2.30;;
37931;SDS011;23758;42.640;23.302;2022-10-04T17:33:06;3.08;;;2.75;;
37931;SDS011;23758;42.640;23.302;2022-10-04T17:49:25;2.20;;;2.10;;
37931;SDS011;23758;42.640;23.302;2022-10-04T17:52:20;2.30;;;2.20;;
37931;SDS011;23758;42.640;23.302;2022-10-04T17:55:23;2.30;;;2.20;;
37931;SDS011;23758;42.640;23.302;2022-10-04T17:58:03;2.58;;;2.38;;
37931;SDS011;23758;42.640;23.302;2022-10-04T18:03:18;2.20;;;2.10;;
37931;SDS011;23758;42.640;23.302;2022-10-04T18:05:50;2.30;;;2.20;;
37931;SDS011;23758;42.640;23.302;2022-10-04T18:16:44;2.53;;;2.40;;
37931;SDS011;23758;42.640;23.302;2022-10-04T18:22:17;2.38;;;2.28;;
37931;SDS011;23758;42.640;23.302;2022-10-04T18:24:48;2.30;;;2.20;;
37931;SDS011;23758;42.640;23.302;2022-10-04T18:27:46;2.30;;;2.20;;
37931;SDS011;23758;42.640;23.302;2022-10-04T18:30:18;2.38;;;2.28;;
37931;SDS011;23758;42.640;23.302;2022-10-04T18:32:46;2.30;;;2.20;;
37931;SDS011;23758;42.640;23.302;2022-10-04T18:37:49;2.20;;;2.10;;
37931;SDS011;23758;42.640;23.302;2022-10-04T18:40:16;2.20;;;2.10;;
37931;SDS011;23758;42.640;23.302;2022-10-04T18:42:57;2.40;;;2.30;;
37931;SDS011;23758;42.640;23.302;2022-10-04T18:48:01;2.40;;;2.30;;
37931;SDS011;23758;42.640;23.302;2022-10-04T18:50:39;2.20;;;2.10;;
37931;SDS011;23758;42.640;23.302;2022-10-04T18:56:07;2.17;;;2.08;;
37931;SDS011;23758;42.640;23.302;2022-10-04T19:04:41;2.30;;;2.20;;
37931;SDS011;23758;42.640;23.302;2022-10-04T19:10:25;2.60;;;2.40;;
37931;SDS011;23758;42.640;23.302;2022-10-04T19:25:44;2.50;;;2.40;;
37931;SDS011;23758;42.640;23.302;2022-10-04T19:28:18;2.30;;;2.20;;
37931;SDS011;23758;42.640;23.302;2022-10-04T19:43:46;2.40;;;2.30;;
37931;SDS011;23758;42.640;23.302;2022-10-04T19:54:49;2.50;;;2.40;;
37931;SDS011;23758;42.640;23.302;2022-10-04T19:57:19;2.30;;;2.20;;
37931;SDS011;23758;42.640;23.302;2022-10-04T19:59:49;3.47;;;2.50;;
37931;SDS011;23758;42.640;23.302;2022-10-04T20:02:14;2.30;;;2.20;;
37931;SDS011;23758;42.640;23.302;2022-10-04T20:04:40;2.47;;;2.38;;
37931;SDS011;23758;42.640;23.302;2022-10-04T20:17:41;2.45;;;2.35;;
37931;SDS011;23758;42.640;23.302;2022-10-04T20:20:07;2.40;;;2.30;;
37931;SDS011;23758;42.640;23.302;2022-10-04T20:28:07;2.70;;;2.50;;
37931;SDS011;23758;42.640;23.302;2022-10-04T20:30:47;2.58;;;2.40;;
37931;SDS011;23758;42.640;23.302;2022-10-04T20:36:09;2.40;;;2.30;;
37931;SDS011;23758;42.640;23.302;2022-10-04T20:38:57;2.53;;;2.40;;
37931;SDS011;23758;42.640;23.302;2022-10-04T20:46:23;2.47;;;2.38;;
37931;SDS011;23758;42.640;23.302;2022-10-04T20:48:49;2.50;;;2.40;;
37931;SDS011;23758;42.640;23.302;2022-10-04T20:51:17;2.65;;;2.45;;
37931;SDS011;23758;42.640;23.302;2022-10-04T20:53:43;2.47;;;2.38;;
37931;SDS011;23758;42.640;23.302;2022-10-04T20:56:23;2.42;;;2.33;;
37931;SDS011;23758;42.640;23.302;2022-10-04T20:58:59;2.58;;;2.40;;
37931;SDS011;23758;42.640;23.302;2022-10-04T21:01:26;2.30;;;2.20;;
37931;SDS011;23758;42.640;23.302;2022-10-04T21:04:18;2.83;;;2.63;;
37931;SDS011;23758;42.640;23.302;2022-10-04T21:06:55;2.75;;;2.55;;
37931;SDS011;23758;42.640;23.302;2022-10-04T21:09:21;2.50;;;2.40;;
37931;SDS011;23758;42.640;23.302;2022-10-04T21:11:51;2.33;;;2.22;;
37931;SDS011;23758;42.640;23.302;2022-10-04T21:14:24;2.70;;;2.50;;
37931;SDS011;23758;42.640;23.302;2022-10-04T21:16:53;2.67;;;2.50;;
37931;SDS011;23758;42.640;23.302;2022-10-04T21:19:39;2.70;;;2.50;;
37931;SDS011;23758;42.640;23.302;2022-10-04T21:22:08;2.60;;;2.40;;
37931;SDS011;23758;42.640;23.302;2022-10-04T21:24:41;2.50;;;2.40;;
37931;SDS011;23758;42.640;23.302;2022-10-04T21:27:33;2.70;;;2.50;;
37931;SDS011;23758;42.640;23.302;2022-10-04T21:29:59;2.40;;;2.30;;
37931;SDS011;23758;42.640;23.302;2022-10-04T21:32:26;2.92;;;2.72;;
37931;SDS011;23758;42.640;23.302;2022-10-04T21:34:56;2.50;;;2.40;;
37931;SDS011;23758;42.640;23.302;2022-10-04T21:37:21;2.70;;;2.50;;
37931;SDS011;23758;42.640;23.302;2022-10-04T21:39:47;3.08;;;2.88;;
37931;SDS011;23758;42.640;23.302;2022-10-04T21:42:12;2.50;;;2.40;;
37931;SDS011;23758;42.640;23.302;2022-10-04T21:44:38;2.72;;;2.53;;
37931;SDS011;23758;42.640;23.302;2022-10-04T21:47:03;2.58;;;2.40;;
37931;SDS011;23758;42.640;23.302;2022-10-04T21:49:29;2.50;;;2.40;;
37931;SDS011;23758;42.640;23.302;2022-10-04T21:51:54;2.50;;;2.40;;
37931;SDS011;23758;42.640;23.302;2022-10-04T21:54:20;2.65;;;2.45;;
37931;SDS011;23758;42.640;23.302;2022-10-04T21:56:45;2.50;;;2.40;;
37931;SDS011;23758;42.640;23.302;2022-10-04T21:59:11;2.50;;;2.40;;
37931;SDS011;23758;42.640;23.302;2022-10-04T22:01:36;2.70;;;2.50;;
37931;SDS011;23758;42.640;23.302;2022-10-04T22:04:02;2.30;;;2.20;;
37931;SDS011;23758;42.640;23.302;2022-10-04T22:06:27;2.55;;;2.40;;
37931;SDS011;23758;42.640;23.302;2022-10-04T22:08:53;2.50;;;2.40;;
37931;SDS011;23758;42.640;23.302;2022-10-04T22:11:18;2.72;;;2.53;;
37931;SDS011;23758;42.640;23.302;2022-10-04T22:13:44;2.70;;;2.50;;
37931;SDS011;23758;42.640;23.302;2022-10-04T22:16:10;3.17;;;2.95;;
37931;SDS011;23758;42.640;23.302;2022-10-04T22:18:36;2.40;;;2.30;;
37931;SDS011;23758;42.640;23.302;2022-10-04T22:21:02;2.63;;;2.42;;
37931;SDS011;23758;42.640;23.302;2022-10-04T22:23:28;2.95;;;2.75;;
37931;SDS011;23758;42.640;23.302;2022-10-04T22:25:53;2.50;;;2.40;;
37931;SDS011;23758;42.640;23.302;2022-10-04T22:30:46;2.40;;;2.30;;
37931;SDS011;23758;42.640;23.302;2022-10-04T22:33:47;2.40;;;2.30;;
37931;SDS011;23758;42.640;23.302;2022-10-04T22:38:46;2.72;;;2.53;;
37931;SDS011;23758;42.640;23.302;2022-10-04T22:41:13;2.65;;;2.45;;
37931;SDS011;23758;42.640;23.302;2022-10-04T22:43:42;2.70;;;2.50;;
37931;SDS011;23758;42.640;23.302;2022-10-04T22:46:10;2.50;;;2.40;;
37931;SDS011;23758;42.640;23.302;2022-10-04T22:48:38;2.55;;;2.42;;
37931;SDS011;23758;42.640;23.302;2022-10-04T22:51:04;2.78;;;2.58;;
37931;SDS011;23758;42.640;23.302;2022-10-04T22:53:29;2.47;;;2.38;;
37931;SDS011;23758;42.640;23.302;2022-10-04T22:55:55;2.70;;;2.50;;
37931;SDS011;23758;42.640;23.302;2022-10-04T22:58:21;2.70;;;2.50;;
37931;SDS011;23758;42.640;23.302;2022-10-04T23:00:48;2.40;;;2.30;;
37931;SDS011;23758;42.640;23.302;2022-10-04T23:05:59;2.40;;;2.30;;
37931;SDS011;23758;42.640;23.302;2022-10-04T23:08:26;2.58;;;2.40;;
37931;SDS011;23758;42.640;23.302;2022-10-04T23:10:58;2.70;;;2.50;;
37931;SDS011;23758;42.640;23.302;2022-10-04T23:13:25;2.78;;;2.58;;
37931;SDS011;23758;42.640;23.302;2022-10-04T23:15:51;2.60;;;2.40;;
37931;SDS011;23758;42.640;23.302;2022-10-04T23:18:17;2.40;;;2.30;;
37931;SDS011;23758;42.640;23.302;2022-10-04T23:20:43;2.55;;;2.38;;
37931;SDS011;23758;42.640;23.302;2022-10-04T23:23:13;2.50;;;2.40;;
37931;SDS011;23758;42.640;23.302;2022-10-04T23:25:45;2.70;;;2.50;;
37931;SDS011;23758;42.640;23.302;2022-10-04T23:28:12;2.50;;;2.40;;
37931;SDS011;23758;42.640;23.302;2022-10-04T23:30:39;2.70;;;2.50;;
37931;SDS011;23758;42.640;23.302;2022-10-04T23:33:05;2.40;;;2.30;;
37931;SDS011;23758;42.640;23.302;2022-10-04T23:35:38;2.40;;;2.30;;
37931;SDS011;23758;42.640;23.302;2022-10-04T23:38:04;2.47;;;2.38;;
37931;SDS011;23758;42.640;23.302;2022-10-04T23:40:31;2.40;;;2.30;;
37931;SDS011;23758;42.640;23.302;2022-10-04T23:42:57;3.45;;;3.15;;
37931;SDS011;23758;42.640;23.302;2022-10-04T23:45:24;2.50;;;2.40;;
37931;SDS011;23758;42.640;23.302;2022-10-04T23:47:50;2.80;;;2.60;;
37931;SDS011;23758;42.640;23.302;2022-10-04T23:50:25;2.60;;;2.40;;
37931;SDS011;23758;42.640;23.302;2022-10-04T23:52:53;2.38;;;2.28;;
37931;SDS011;23758;42.640;23.302;2022-10-04T23:55:22;2.42;;;2.33;;
37931;SDS011;23758;42.640;23.302;2022-10-04T23:57:49;2.50;;;2.40;;
